logo
Search for airport 
image banner adimage banner adimage banner ad
image banner ad

ULWB - Belozersk

Located in Belozersk, Russian Federation

ICAO - , IATA -

Data provided by Airmate  

General information

Coordinates: N60°0'57" E37°45'19"
Elevation is 427 feet MSL.
Magnetic variation is 13° East
View others Airports in Vologda Oblast

Operational data

Special qualification required
Current time UTC:
Current local time:
Weather at : - ( 0 km )
METAR: PAKX 251535Z AUTO 00000KT 10SM CLR 10/08 A3003 RMK AO2
View NOTAMs / SUP AIP / TFR affecting this airport [VIEW]
Communications frequencies: [VIEW]

Runways:

RWY identifierQFULength (ft)Width (ft)SurfaceLDA (ft)
15160°00GRAS
33340°00GRAS
29295°00ASPH
11115°00ASPH
29295°00ASPH
11115°00ASPH

Airport contact information

Address: Belozersk Russian Federation

Satellite view of ULWB